sensor_id;sensor_type;location;lat;lon;timestamp;P1;durP1;ratioP1;P2;durP2;ratioP2
19842;SDS011;10082;51.038;6.992;2022-08-05T00:01:10;4.57;;;3.65;;
19842;SDS011;10082;51.038;6.992;2022-08-05T00:03:37;4.60;;;4.20;;
19842;SDS011;10082;51.038;6.992;2022-08-05T00:06:04;6.30;;;4.28;;
19842;SDS011;10082;51.038;6.992;2022-08-05T00:08:32;8.55;;;3.90;;
19842;SDS011;10082;51.038;6.992;2022-08-05T00:10:59;4.65;;;3.20;;
19842;SDS011;10082;51.038;6.992;2022-08-05T00:13:29;4.07;;;3.50;;
19842;SDS011;10082;51.038;6.992;2022-08-05T00:15:57;6.18;;;3.78;;
19842;SDS011;10082;51.038;6.992;2022-08-05T00:18:23;5.15;;;3.72;;
19842;SDS011;10082;51.038;6.992;2022-08-05T00:20:50;6.88;;;3.58;;
19842;SDS011;10082;51.038;6.992;2022-08-05T00:23:17;3.80;;;3.42;;
19842;SDS011;10082;51.038;6.992;2022-08-05T00:25:44;8.95;;;3.70;;
19842;SDS011;10082;51.038;6.992;2022-08-05T00:28:10;6.40;;;3.70;;
19842;SDS011;10082;51.038;6.992;2022-08-05T00:30:38;4.70;;;3.28;;
19842;SDS011;10082;51.038;6.992;2022-08-05T00:33:05;4.25;;;3.72;;
19842;SDS011;10082;51.038;6.992;2022-08-05T00:35:32;4.72;;;3.45;;
19842;SDS011;10082;51.038;6.992;2022-08-05T00:37:59;5.30;;;3.63;;
19842;SDS011;10082;51.038;6.992;2022-08-05T00:40:25;4.63;;;3.13;;
19842;SDS011;10082;51.038;6.992;2022-08-05T00:42:53;4.60;;;3.40;;
19842;SDS011;10082;51.038;6.992;2022-08-05T00:45:19;6.53;;;3.95;;
19842;SDS011;10082;51.038;6.992;2022-08-05T00:47:47;4.88;;;3.33;;
19842;SDS011;10082;51.038;6.992;2022-08-05T00:50:14;4.60;;;3.53;;
19842;SDS011;10082;51.038;6.992;2022-08-05T00:52:41;4.45;;;3.53;;
19842;SDS011;10082;51.038;6.992;2022-08-05T00:55:08;4.40;;;4.00;;
19842;SDS011;10082;51.038;6.992;2022-08-05T00:57:36;4.10;;;3.65;;
19842;SDS011;10082;51.038;6.992;2022-08-05T01:00:03;5.75;;;3.60;;
19842;SDS011;10082;51.038;6.992;2022-08-05T01:02:30;4.88;;;3.53;;
19842;SDS011;10082;51.038;6.992;2022-08-05T01:04:58;5.28;;;3.78;;
19842;SDS011;10082;51.038;6.992;2022-08-05T01:07:25;4.40;;;3.72;;
19842;SDS011;10082;51.038;6.992;2022-08-05T01:09:52;6.57;;;3.72;;
19842;SDS011;10082;51.038;6.992;2022-08-05T01:12:19;4.78;;;4.20;;
19842;SDS011;10082;51.038;6.992;2022-08-05T01:14:47;5.75;;;3.78;;
19842;SDS011;10082;51.038;6.992;2022-08-05T01:17:22;3.47;;;3.15;;
19842;SDS011;10082;51.038;6.992;2022-08-05T01:19:53;5.32;;;3.65;;
19842;SDS011;10082;51.038;6.992;2022-08-05T01:22:36;4.88;;;4.13;;
19842;SDS011;10082;51.038;6.992;2022-08-05T01:25:23;5.53;;;3.70;;
19842;SDS011;10082;51.038;6.992;2022-08-05T01:28:16;4.35;;;3.92;;
19842;SDS011;10082;51.038;6.992;2022-08-05T01:30:50;4.97;;;4.47;;
19842;SDS011;10082;51.038;6.992;2022-08-05T01:33:20;6.10;;;4.30;;
19842;SDS011;10082;51.038;6.992;2022-08-05T01:35:49;5.45;;;4.40;;
19842;SDS011;10082;51.038;6.992;2022-08-05T01:38:20;4.75;;;4.35;;
19842;SDS011;10082;51.038;6.992;2022-08-05T01:40:48;4.57;;;4.20;;
19842;SDS011;10082;51.038;6.992;2022-08-05T01:43:17;7.13;;;4.45;;
19842;SDS011;10082;51.038;6.992;2022-08-05T01:45:45;4.93;;;4.05;;
19842;SDS011;10082;51.038;6.992;2022-08-05T01:48:12;5.75;;;4.47;;
19842;SDS011;10082;51.038;6.992;2022-08-05T01:50:41;4.78;;;4.18;;
19842;SDS011;10082;51.038;6.992;2022-08-05T01:53:12;6.90;;;4.47;;
19842;SDS011;10082;51.038;6.992;2022-08-05T01:55:41;9.23;;;4.50;;
19842;SDS011;10082;51.038;6.992;2022-08-05T01:58:10;7.07;;;4.85;;
19842;SDS011;10082;51.038;6.992;2022-08-05T02:00:40;5.40;;;4.80;;
19842;SDS011;10082;51.038;6.992;2022-08-05T02:03:10;5.07;;;4.63;;
19842;SDS011;10082;51.038;6.992;2022-08-05T02:05:42;5.13;;;4.63;;
19842;SDS011;10082;51.038;6.992;2022-08-05T02:08:10;7.25;;;5.05;;
19842;SDS011;10082;51.038;6.992;2022-08-05T02:10:38;5.78;;;5.07;;
19842;SDS011;10082;51.038;6.992;2022-08-05T02:13:10;5.90;;;5.03;;
19842;SDS011;10082;51.038;6.992;2022-08-05T02:15:42;7.07;;;5.40;;
19842;SDS011;10082;51.038;6.992;2022-08-05T02:18:13;5.43;;;4.93;;
19842;SDS011;10082;51.038;6.992;2022-08-05T02:20:48;5.72;;;5.18;;
19842;SDS011;10082;51.038;6.992;2022-08-05T02:23:19;7.60;;;5.28;;
19842;SDS011;10082;51.038;6.992;2022-08-05T02:25:49;6.30;;;5.68;;
19842;SDS011;10082;51.038;6.992;2022-08-05T02:28:19;6.30;;;5.70;;
19842;SDS011;10082;51.038;6.992;2022-08-05T02:30:54;9.30;;;6.43;;
19842;SDS011;10082;51.038;6.992;2022-08-05T02:33:23;7.82;;;6.90;;
19842;SDS011;10082;51.038;6.992;2022-08-05T02:35:52;8.77;;;6.45;;
19842;SDS011;10082;51.038;6.992;2022-08-05T02:38:22;8.00;;;6.60;;
19842;SDS011;10082;51.038;6.992;2022-08-05T02:40:49;11.02;;;7.10;;
19842;SDS011;10082;51.038;6.992;2022-08-05T02:43:19;9.05;;;8.25;;
19842;SDS011;10082;51.038;6.992;2022-08-05T02:45:48;10.55;;;9.55;;
19842;SDS011;10082;51.038;6.992;2022-08-05T02:48:18;11.82;;;10.63;;
19842;SDS011;10082;51.038;6.992;2022-08-05T02:50:46;12.32;;;11.13;;
19842;SDS011;10082;51.038;6.992;2022-08-05T02:53:16;15.43;;;13.95;;
19842;SDS011;10082;51.038;6.992;2022-08-05T02:55:45;16.73;;;15.02;;
19842;SDS011;10082;51.038;6.992;2022-08-05T02:58:13;16.05;;;14.45;;
19842;SDS011;10082;51.038;6.992;2022-08-05T03:00:41;16.83;;;15.13;;
19842;SDS011;10082;51.038;6.992;2022-08-05T03:03:10;19.48;;;17.70;;
19842;SDS011;10082;51.038;6.992;2022-08-05T03:05:41;20.95;;;19.02;;
19842;SDS011;10082;51.038;6.992;2022-08-05T03:08:09;24.77;;;22.17;;
19842;SDS011;10082;51.038;6.992;2022-08-05T03:10:37;25.38;;;22.85;;
19842;SDS011;10082;51.038;6.992;2022-08-05T03:13:10;24.63;;;22.02;;
19842;SDS011;10082;51.038;6.992;2022-08-05T03:15:40;24.25;;;21.70;;
19842;SDS011;10082;51.038;6.992;2022-08-05T03:18:07;22.33;;;20.13;;
19842;SDS011;10082;51.038;6.992;2022-08-05T03:20:34;24.80;;;22.13;;
19842;SDS011;10082;51.038;6.992;2022-08-05T03:23:02;24.35;;;21.50;;
19842;SDS011;10082;51.038;6.992;2022-08-05T03:25:30;23.65;;;21.17;;
19842;SDS011;10082;51.038;6.992;2022-08-05T03:27:58;19.90;;;17.92;;
19842;SDS011;10082;51.038;6.992;2022-08-05T03:30:26;24.08;;;21.55;;
19842;SDS011;10082;51.038;6.992;2022-08-05T03:32:56;24.45;;;21.83;;
19842;SDS011;10082;51.038;6.992;2022-08-05T03:35:23;26.60;;;23.92;;
19842;SDS011;10082;51.038;6.992;2022-08-05T03:37:51;25.58;;;23.05;;
19842;SDS011;10082;51.038;6.992;2022-08-05T03:40:20;24.65;;;22.05;;
19842;SDS011;10082;51.038;6.992;2022-08-05T03:42:47;25.67;;;22.98;;
19842;SDS011;10082;51.038;6.992;2022-08-05T03:45:13;27.33;;;24.67;;
19842;SDS011;10082;51.038;6.992;2022-08-05T03:47:40;29.80;;;26.75;;
19842;SDS011;10082;51.038;6.992;2022-08-05T03:50:07;29.67;;;26.48;;
19842;SDS011;10082;51.038;6.992;2022-08-05T03:52:37;29.92;;;26.83;;
19842;SDS011;10082;51.038;6.992;2022-08-05T03:55:13;27.88;;;25.00;;
19842;SDS011;10082;51.038;6.992;2022-08-05T03:57:44;30.63;;;27.35;;
19842;SDS011;10082;51.038;6.992;2022-08-05T04:00:12;29.38;;;26.17;;
19842;SDS011;10082;51.038;6.992;2022-08-05T04:02:41;31.20;;;28.27;;
19842;SDS011;10082;51.038;6.992;2022-08-05T04:05:10;31.42;;;28.17;;
19842;SDS011;10082;51.038;6.992;2022-08-05T04:07:38;32.13;;;28.98;;
19842;SDS011;10082;51.038;6.992;2022-08-05T04:10:07;32.28;;;28.98;;
19842;SDS011;10082;51.038;6.992;2022-08-05T04:12:34;38.03;;;34.22;;
19842;SDS011;10082;51.038;6.992;2022-08-05T04:15:03;36.78;;;33.13;;
19842;SDS011;10082;51.038;6.992;2022-08-05T04:17:32;40.05;;;36.25;;
19842;SDS011;10082;51.038;6.992;2022-08-05T04:19:59;40.70;;;36.80;;
19842;SDS011;10082;51.038;6.992;2022-08-05T04:22:26;39.63;;;35.90;;
19842;SDS011;10082;51.038;6.992;2022-08-05T04:24:52;40.83;;;36.85;;
19842;SDS011;10082;51.038;6.992;2022-08-05T04:27:19;41.28;;;36.97;;
19842;SDS011;10082;51.038;6.992;2022-08-05T04:29:46;45.30;;;40.60;;
19842;SDS011;10082;51.038;6.992;2022-08-05T04:32:14;43.83;;;39.33;;
19842;SDS011;10082;51.038;6.992;2022-08-05T04:34:41;36.47;;;32.58;;
19842;SDS011;10082;51.038;6.992;2022-08-05T04:37:07;34.55;;;30.80;;
19842;SDS011;10082;51.038;6.992;2022-08-05T04:39:34;36.50;;;32.97;;
19842;SDS011;10082;51.038;6.992;2022-08-05T04:42:01;35.65;;;32.13;;
19842;SDS011;10082;51.038;6.992;2022-08-05T04:44:28;37.05;;;33.35;;
19842;SDS011;10082;51.038;6.992;2022-08-05T04:46:55;35.40;;;31.92;;
19842;SDS011;10082;51.038;6.992;2022-08-05T04:49:23;37.53;;;34.03;;
19842;SDS011;10082;51.038;6.992;2022-08-05T04:51:49;38.25;;;34.55;;
19842;SDS011;10082;51.038;6.992;2022-08-05T04:54:16;39.33;;;35.35;;
19842;SDS011;10082;51.038;6.992;2022-08-05T04:56:43;41.97;;;37.65;;
19842;SDS011;10082;51.038;6.992;2022-08-05T04:59:10;42.42;;;37.97;;
19842;SDS011;10082;51.038;6.992;2022-08-05T05:01:37;43.83;;;39.35;;
19842;SDS011;10082;51.038;6.992;2022-08-05T05:04:03;46.25;;;41.45;;
19842;SDS011;10082;51.038;6.992;2022-08-05T05:06:31;47.65;;;43.13;;
19842;SDS011;10082;51.038;6.992;2022-08-05T05:08:58;50.22;;;45.05;;
19842;SDS011;10082;51.038;6.992;2022-08-05T05:11:25;47.13;;;42.53;;
19842;SDS011;10082;51.038;6.992;2022-08-05T05:13:51;46.70;;;42.08;;
19842;SDS011;10082;51.038;6.992;2022-08-05T05:16:18;47.47;;;42.67;;
19842;SDS011;10082;51.038;6.992;2022-08-05T05:18:45;47.92;;;43.13;;
19842;SDS011;10082;51.038;6.992;2022-08-05T05:21:11;50.53;;;45.05;;
19842;SDS011;10082;51.038;6.992;2022-08-05T05:23:39;51.58;;;46.08;;
19842;SDS011;10082;51.038;6.992;2022-08-05T05:26:06;51.35;;;45.05;;
19842;SDS011;10082;51.038;6.992;2022-08-05T05:28:33;49.03;;;43.97;;
19842;SDS011;10082;51.038;6.992;2022-08-05T05:30:59;49.15;;;43.80;;
19842;SDS011;10082;51.038;6.992;2022-08-05T05:33:26;51.03;;;45.53;;
19842;SDS011;10082;51.038;6.992;2022-08-05T05:35:53;48.25;;;43.15;;
19842;SDS011;10082;51.038;6.992;2022-08-05T05:38:19;57.08;;;51.05;;
19842;SDS011;10082;51.038;6.992;2022-08-05T05:40:47;57.40;;;51.50;;
19842;SDS011;10082;51.038;6.992;2022-08-05T05:43:14;53.97;;;47.55;;
19842;SDS011;10082;51.038;6.992;2022-08-05T05:45:41;53.78;;;47.53;;
19842;SDS011;10082;51.038;6.992;2022-08-05T05:48:07;58.25;;;51.05;;
19842;SDS011;10082;51.038;6.992;2022-08-05T05:50:34;55.50;;;49.45;;
19842;SDS011;10082;51.038;6.992;2022-08-05T05:53:03;57.67;;;51.38;;
19842;SDS011;10082;51.038;6.992;2022-08-05T05:55:30;56.15;;;49.50;;
19842;SDS011;10082;51.038;6.992;2022-08-05T05:57:58;56.35;;;50.25;;
19842;SDS011;10082;51.038;6.992;2022-08-05T06:00:25;62.17;;;52.22;;
19842;SDS011;10082;51.038;6.992;2022-08-05T06:02:52;58.10;;;50.67;;
19842;SDS011;10082;51.038;6.992;2022-08-05T06:05:18;55.58;;;49.63;;
19842;SDS011;10082;51.038;6.992;2022-08-05T06:07:45;56.90;;;50.70;;
19842;SDS011;10082;51.038;6.992;2022-08-05T06:10:14;58.17;;;51.97;;
19842;SDS011;10082;51.038;6.992;2022-08-05T06:12:41;55.97;;;49.45;;
19842;SDS011;10082;51.038;6.992;2022-08-05T06:15:09;56.55;;;50.40;;
19842;SDS011;10082;51.038;6.992;2022-08-05T06:17:36;54.97;;;49.13;;
19842;SDS011;10082;51.038;6.992;2022-08-05T06:20:03;55.80;;;49.78;;
19842;SDS011;10082;51.038;6.992;2022-08-05T06:22:31;54.63;;;48.72;;
19842;SDS011;10082;51.038;6.992;2022-08-05T06:25:00;53.85;;;48.30;;
19842;SDS011;10082;51.038;6.992;2022-08-05T06:27:28;52.55;;;46.78;;
19842;SDS011;10082;51.038;6.992;2022-08-05T06:29:54;48.92;;;43.20;;
19842;SDS011;10082;51.038;6.992;2022-08-05T06:32:23;47.70;;;42.55;;
19842;SDS011;10082;51.038;6.992;2022-08-05T06:34:50;47.45;;;42.35;;
19842;SDS011;10082;51.038;6.992;2022-08-05T06:37:16;46.28;;;41.33;;
19842;SDS011;10082;51.038;6.992;2022-08-05T06:39:43;46.22;;;41.33;;
19842;SDS011;10082;51.038;6.992;2022-08-05T06:42:10;46.10;;;41.35;;
19842;SDS011;10082;51.038;6.992;2022-08-05T06:44:40;46.42;;;41.40;;
19842;SDS011;10082;51.038;6.992;2022-08-05T06:47:06;49.13;;;43.80;;
19842;SDS011;10082;51.038;6.992;2022-08-05T06:49:35;44.80;;;40.25;;
19842;SDS011;10082;51.038;6.992;2022-08-05T06:52:02;35.80;;;32.22;;
19842;SDS011;10082;51.038;6.992;2022-08-05T06:54:29;34.67;;;31.27;;
19842;SDS011;10082;51.038;6.992;2022-08-05T06:56:56;33.47;;;30.35;;
19842;SDS011;10082;51.038;6.992;2022-08-05T06:59:23;33.08;;;30.00;;
19842;SDS011;10082;51.038;6.992;2022-08-05T07:01:49;33.25;;;30.25;;
19842;SDS011;10082;51.038;6.992;2022-08-05T07:04:16;34.28;;;30.95;;
19842;SDS011;10082;51.038;6.992;2022-08-05T07:06:44;33.80;;;30.75;;
19842;SDS011;10082;51.038;6.992;2022-08-05T07:09:11;33.95;;;30.77;;
19842;SDS011;10082;51.038;6.992;2022-08-05T07:11:38;34.65;;;31.45;;
19842;SDS011;10082;51.038;6.992;2022-08-05T07:14:04;32.60;;;29.50;;
19842;SDS011;10082;51.038;6.992;2022-08-05T07:16:49;33.78;;;30.38;;
19842;SDS011;10082;51.038;6.992;2022-08-05T07:19:16;32.58;;;29.40;;
19842;SDS011;10082;51.038;6.992;2022-08-05T07:21:45;33.88;;;30.77;;
19842;SDS011;10082;51.038;6.992;2022-08-05T07:24:12;34.97;;;31.58;;
19842;SDS011;10082;51.038;6.992;2022-08-05T07:26:39;35.33;;;32.10;;
19842;SDS011;10082;51.038;6.992;2022-08-05T07:29:07;36.35;;;32.97;;
19842;SDS011;10082;51.038;6.992;2022-08-05T07:31:34;38.70;;;35.10;;
19842;SDS011;10082;51.038;6.992;2022-08-05T07:34:01;40.28;;;36.45;;
19842;SDS011;10082;51.038;6.992;2022-08-05T07:36:28;40.78;;;36.50;;
19842;SDS011;10082;51.038;6.992;2022-08-05T07:38:59;42.03;;;37.97;;
19842;SDS011;10082;51.038;6.992;2022-08-05T07:41:26;41.10;;;37.10;;
19842;SDS011;10082;51.038;6.992;2022-08-05T07:43:53;36.13;;;32.53;;
19842;SDS011;10082;51.038;6.992;2022-08-05T07:46:21;35.75;;;32.40;;
19842;SDS011;10082;51.038;6.992;2022-08-05T07:48:47;35.15;;;31.75;;
19842;SDS011;10082;51.038;6.992;2022-08-05T07:51:14;34.92;;;31.45;;
19842;SDS011;10082;51.038;6.992;2022-08-05T07:53:41;36.55;;;32.95;;
19842;SDS011;10082;51.038;6.992;2022-08-05T07:56:09;35.30;;;31.65;;
19842;SDS011;10082;51.038;6.992;2022-08-05T07:58:36;37.50;;;33.85;;
19842;SDS011;10082;51.038;6.992;2022-08-05T08:01:03;38.53;;;34.70;;
19842;SDS011;10082;51.038;6.992;2022-08-05T08:03:30;37.92;;;34.13;;
19842;SDS011;10082;51.038;6.992;2022-08-05T08:05:56;40.67;;;36.47;;
19842;SDS011;10082;51.038;6.992;2022-08-05T08:08:23;42.38;;;37.80;;
19842;SDS011;10082;51.038;6.992;2022-08-05T08:10:50;46.03;;;39.95;;
19842;SDS011;10082;51.038;6.992;2022-08-05T08:13:21;48.35;;;42.45;;
19842;SDS011;10082;51.038;6.992;2022-08-05T08:15:47;51.00;;;43.90;;
19842;SDS011;10082;51.038;6.992;2022-08-05T08:18:14;46.72;;;41.70;;
19842;SDS011;10082;51.038;6.992;2022-08-05T08:20:41;42.90;;;37.15;;
19842;SDS011;10082;51.038;6.992;2022-08-05T08:23:08;41.67;;;37.17;;
19842;SDS011;10082;51.038;6.992;2022-08-05T08:25:35;40.28;;;36.08;;
19842;SDS011;10082;51.038;6.992;2022-08-05T08:28:01;40.67;;;36.28;;
19842;SDS011;10082;51.038;6.992;2022-08-05T08:30:29;38.25;;;34.15;;
19842;SDS011;10082;51.038;6.992;2022-08-05T08:32:56;39.28;;;35.15;;
19842;SDS011;10082;51.038;6.992;2022-08-05T08:35:23;35.50;;;31.90;;
19842;SDS011;10082;51.038;6.992;2022-08-05T08:37:49;30.95;;;27.90;;
19842;SDS011;10082;51.038;6.992;2022-08-05T08:40:16;29.50;;;26.58;;
19842;SDS011;10082;51.038;6.992;2022-08-05T08:42:43;28.80;;;25.88;;
19842;SDS011;10082;51.038;6.992;2022-08-05T08:45:15;26.60;;;24.00;;
19842;SDS011;10082;51.038;6.992;2022-08-05T08:47:43;27.45;;;24.75;;
19842;SDS011;10082;51.038;6.992;2022-08-05T08:50:11;28.80;;;25.90;;
19842;SDS011;10082;51.038;6.992;2022-08-05T08:52:38;29.08;;;26.02;;
19842;SDS011;10082;51.038;6.992;2022-08-05T08:55:11;29.73;;;26.63;;
19842;SDS011;10082;51.038;6.992;2022-08-05T08:57:38;31.40;;;28.25;;
19842;SDS011;10082;51.038;6.992;2022-08-05T09:00:06;33.15;;;29.67;;
19842;SDS011;10082;51.038;6.992;2022-08-05T09:02:34;35.05;;;31.30;;
19842;SDS011;10082;51.038;6.992;2022-08-05T09:05:02;35.35;;;31.63;;
19842;SDS011;10082;51.038;6.992;2022-08-05T09:07:29;37.72;;;33.92;;
19842;SDS011;10082;51.038;6.992;2022-08-05T09:09:56;38.70;;;34.75;;
19842;SDS011;10082;51.038;6.992;2022-08-05T09:12:23;40.20;;;35.90;;
19842;SDS011;10082;51.038;6.992;2022-08-05T09:14:50;40.45;;;36.35;;
19842;SDS011;10082;51.038;6.992;2022-08-05T09:17:17;39.20;;;35.17;;
19842;SDS011;10082;51.038;6.992;2022-08-05T09:19:44;40.10;;;36.08;;
19842;SDS011;10082;51.038;6.992;2022-08-05T09:22:12;37.97;;;34.22;;
19842;SDS011;10082;51.038;6.992;2022-08-05T09:24:39;34.67;;;31.38;;
19842;SDS011;10082;51.038;6.992;2022-08-05T09:27:10;31.50;;;28.63;;
19842;SDS011;10082;51.038;6.992;2022-08-05T09:29:56;28.20;;;25.55;;
19842;SDS011;10082;51.038;6.992;2022-08-05T09:32:32;26.92;;;24.52;;
19842;SDS011;10082;51.038;6.992;2022-08-05T09:35:01;24.75;;;22.48;;
19842;SDS011;10082;51.038;6.992;2022-08-05T09:37:37;24.15;;;22.05;;
19842;SDS011;10082;51.038;6.992;2022-08-05T09:40:27;24.00;;;21.63;;
19842;SDS011;10082;51.038;6.992;2022-08-05T09:42:55;21.15;;;18.95;;
19842;SDS011;10082;51.038;6.992;2022-08-05T09:45:26;22.70;;;20.70;;
19842;SDS011;10082;51.038;6.992;2022-08-05T09:48:01;23.83;;;21.42;;
19842;SDS011;10082;51.038;6.992;2022-08-05T09:50:47;21.95;;;20.15;;
19842;SDS011;10082;51.038;6.992;2022-08-05T09:53:15;22.80;;;20.90;;
19842;SDS011;10082;51.038;6.992;2022-08-05T09:55:42;20.80;;;18.70;;
19842;SDS011;10082;51.038;6.992;2022-08-05T09:58:09;21.73;;;19.77;;
19842;SDS011;10082;51.038;6.992;2022-08-05T10:00:36;21.92;;;20.13;;
19842;SDS011;10082;51.038;6.992;2022-08-05T10:03:07;21.17;;;19.15;;
19842;SDS011;10082;51.038;6.992;2022-08-05T10:05:35;20.60;;;18.98;;
19842;SDS011;10082;51.038;6.992;2022-08-05T10:08:03;19.15;;;17.55;;
19842;SDS011;10082;51.038;6.992;2022-08-05T10:10:35;19.05;;;17.50;;
19842;SDS011;10082;51.038;6.992;2022-08-05T10:13:03;18.98;;;17.42;;
19842;SDS011;10082;51.038;6.992;2022-08-05T10:15:32;17.45;;;15.98;;
19842;SDS011;10082;51.038;6.992;2022-08-05T10:18:01;16.73;;;15.32;;
19842;SDS011;10082;51.038;6.992;2022-08-05T10:20:31;16.30;;;14.90;;
19842;SDS011;10082;51.038;6.992;2022-08-05T10:22:59;17.02;;;15.35;;
19842;SDS011;10082;51.038;6.992;2022-08-05T10:25:26;16.65;;;15.20;;
19842;SDS011;10082;51.038;6.992;2022-08-05T10:27:54;15.88;;;14.38;;
19842;SDS011;10082;51.038;6.992;2022-08-05T10:30:21;14.18;;;12.77;;
19842;SDS011;10082;51.038;6.992;2022-08-05T10:32:48;14.35;;;12.95;;
19842;SDS011;10082;51.038;6.992;2022-08-05T10:35:15;14.75;;;13.23;;
19842;SDS011;10082;51.038;6.992;2022-08-05T10:37:42;12.02;;;11.02;;
19842;SDS011;10082;51.038;6.992;2022-08-05T10:40:13;10.30;;;9.50;;
19842;SDS011;10082;51.038;6.992;2022-08-05T10:42:46;10.80;;;9.85;;
19842;SDS011;10082;51.038;6.992;2022-08-05T10:45:20;9.07;;;8.38;;
19842;SDS011;10082;51.038;6.992;2022-08-05T10:47:51;9.55;;;8.65;;
19842;SDS011;10082;51.038;6.992;2022-08-05T10:50:18;9.73;;;8.27;;
19842;SDS011;10082;51.038;6.992;2022-08-05T10:52:47;9.30;;;7.60;;
19842;SDS011;10082;51.038;6.992;2022-08-05T10:55:21;7.85;;;7.03;;
19842;SDS011;10082;51.038;6.992;2022-08-05T10:57:48;8.32;;;6.43;;
19842;SDS011;10082;51.038;6.992;2022-08-05T11:00:33;7.88;;;6.60;;
19842;SDS011;10082;51.038;6.992;2022-08-05T11:03:10;7.32;;;6.68;;
19842;SDS011;10082;51.038;6.992;2022-08-05T11:05:38;7.78;;;7.07;;
19842;SDS011;10082;51.038;6.992;2022-08-05T11:08:06;8.10;;;7.45;;
19842;SDS011;10082;51.038;6.992;2022-08-05T11:10:35;7.90;;;6.93;;
19842;SDS011;10082;51.038;6.992;2022-08-05T11:13:04;7.63;;;6.90;;
19842;SDS011;10082;51.038;6.992;2022-08-05T11:15:35;8.00;;;6.22;;
19842;SDS011;10082;51.038;6.992;2022-08-05T11:18:06;8.15;;;6.80;;
19842;SDS011;10082;51.038;6.992;2022-08-05T11:20:35;7.03;;;6.32;;
19842;SDS011;10082;51.038;6.992;2022-08-05T11:26:00;7.28;;;6.57;;
19842;SDS011;10082;51.038;6.992;2022-08-05T11:28:41;7.38;;;6.55;;
19842;SDS011;10082;51.038;6.992;2022-08-05T11:31:18;9.25;;;7.65;;
19842;SDS011;10082;51.038;6.992;2022-08-05T11:33:54;7.72;;;7.07;;
19842;SDS011;10082;51.038;6.992;2022-08-05T11:39:12;6.07;;;5.45;;
19842;SDS011;10082;51.038;6.992;2022-08-05T11:41:40;8.25;;;5.28;;
19842;SDS011;10082;51.038;6.992;2022-08-05T11:44:14;6.40;;;5.90;;
19842;SDS011;10082;51.038;6.992;2022-08-05T11:46:47;6.10;;;5.50;;
19842;SDS011;10082;51.038;6.992;2022-08-05T11:49:16;5.28;;;4.88;;
19842;SDS011;10082;51.038;6.992;2022-08-05T11:51:44;4.47;;;4.07;;
19842;SDS011;10082;51.038;6.992;2022-08-05T11:54:13;4.93;;;4.53;;
19842;SDS011;10082;51.038;6.992;2022-08-05T11:56:46;4.65;;;4.25;;
19842;SDS011;10082;51.038;6.992;2022-08-05T11:59:16;4.47;;;4.03;;
19842;SDS011;10082;51.038;6.992;2022-08-05T12:01:58;5.40;;;5.00;;
19842;SDS011;10082;51.038;6.992;2022-08-05T12:04:27;5.38;;;4.57;;
19842;SDS011;10082;51.038;6.992;2022-08-05T12:06:57;4.43;;;3.90;;
19842;SDS011;10082;51.038;6.992;2022-08-05T12:09:24;4.60;;;4.07;;
19842;SDS011;10082;51.038;6.992;2022-08-05T12:11:54;3.78;;;3.47;;
19842;SDS011;10082;51.038;6.992;2022-08-05T12:14:21;4.00;;;3.70;;
19842;SDS011;10082;51.038;6.992;2022-08-05T12:16:48;3.95;;;3.55;;
19842;SDS011;10082;51.038;6.992;2022-08-05T12:19:16;3.85;;;3.50;;
19842;SDS011;10082;51.038;6.992;2022-08-05T12:21:46;4.00;;;3.60;;
19842;SDS011;10082;51.038;6.992;2022-08-05T12:24:15;4.82;;;4.32;;
19842;SDS011;10082;51.038;6.992;2022-08-05T12:26:44;4.07;;;3.78;;
19842;SDS011;10082;51.038;6.992;2022-08-05T12:29:13;4.63;;;3.90;;
19842;SDS011;10082;51.038;6.992;2022-08-05T12:31:45;3.80;;;3.50;;
19842;SDS011;10082;51.038;6.992;2022-08-05T12:34:13;5.03;;;4.10;;
19842;SDS011;10082;51.038;6.992;2022-08-05T12:36:42;3.92;;;3.35;;
19842;SDS011;10082;51.038;6.992;2022-08-05T12:39:11;6.72;;;4.22;;
19842;SDS011;10082;51.038;6.992;2022-08-05T12:41:39;5.55;;;3.55;;
19842;SDS011;10082;51.038;6.992;2022-08-05T12:44:07;4.55;;;4.10;;
19842;SDS011;10082;51.038;6.992;2022-08-05T12:46:36;4.32;;;3.92;;
19842;SDS011;10082;51.038;6.992;2022-08-05T12:49:05;5.25;;;3.42;;
19842;SDS011;10082;51.038;6.992;2022-08-05T12:51:45;3.60;;;3.28;;
19842;SDS011;10082;51.038;6.992;2022-08-05T12:54:18;4.03;;;3.65;;
19842;SDS011;10082;51.038;6.992;2022-08-05T12:56:46;3.55;;;3.20;;
19842;SDS011;10082;51.038;6.992;2022-08-05T12:59:16;3.90;;;3.60;;
19842;SDS011;10082;51.038;6.992;2022-08-05T13:01:45;4.32;;;3.50;;
19842;SDS011;10082;51.038;6.992;2022-08-05T13:04:19;5.38;;;3.72;;
19842;SDS011;10082;51.038;6.992;2022-08-05T13:06:47;5.03;;;3.67;;
19842;SDS011;10082;51.038;6.992;2022-08-05T13:09:14;5.10;;;3.70;;
19842;SDS011;10082;51.038;6.992;2022-08-05T13:11:41;3.67;;;3.20;;
19842;SDS011;10082;51.038;6.992;2022-08-05T13:14:16;5.43;;;3.92;;
19842;SDS011;10082;51.038;6.992;2022-08-05T13:16:48;5.43;;;4.20;;
19842;SDS011;10082;51.038;6.992;2022-08-05T13:19:19;4.35;;;3.95;;
19842;SDS011;10082;51.038;6.992;2022-08-05T13:21:48;4.53;;;3.60;;
19842;SDS011;10082;51.038;6.992;2022-08-05T13:24:15;5.22;;;4.10;;
19842;SDS011;10082;51.038;6.992;2022-08-05T13:26:43;4.50;;;3.60;;
19842;SDS011;10082;51.038;6.992;2022-08-05T13:29:10;4.82;;;4.45;;
19842;SDS011;10082;51.038;6.992;2022-08-05T13:31:36;5.25;;;4.68;;
19842;SDS011;10082;51.038;6.992;2022-08-05T13:34:03;5.70;;;5.18;;
19842;SDS011;10082;51.038;6.992;2022-08-05T13:36:30;4.60;;;4.20;;
19842;SDS011;10082;51.038;6.992;2022-08-05T13:39:00;4.88;;;4.32;;
19842;SDS011;10082;51.038;6.992;2022-08-05T13:41:27;5.72;;;4.30;;
19842;SDS011;10082;51.038;6.992;2022-08-05T13:43:54;5.40;;;4.82;;
19842;SDS011;10082;51.038;6.992;2022-08-05T13:46:21;5.00;;;4.55;;
19842;SDS011;10082;51.038;6.992;2022-08-05T13:48:48;6.38;;;4.18;;
19842;SDS011;10082;51.038;6.992;2022-08-05T13:51:15;4.50;;;4.05;;
19842;SDS011;10082;51.038;6.992;2022-08-05T13:53:51;4.80;;;3.65;;
19842;SDS011;10082;51.038;6.992;2022-08-05T13:56:19;4.75;;;3.83;;
19842;SDS011;10082;51.038;6.992;2022-08-05T13:58:46;4.05;;;3.65;;
19842;SDS011;10082;51.038;6.992;2022-08-05T14:01:13;6.25;;;4.40;;
19842;SDS011;10082;51.038;6.992;2022-08-05T14:03:39;4.32;;;4.03;;
19842;SDS011;10082;51.038;6.992;2022-08-05T14:06:06;4.60;;;4.07;;
19842;SDS011;10082;51.038;6.992;2022-08-05T14:08:32;3.88;;;3.58;;
19842;SDS011;10082;51.038;6.992;2022-08-05T14:10:59;5.18;;;4.38;;
19842;SDS011;10082;51.038;6.992;2022-08-05T14:13:27;3.85;;;3.55;;
19842;SDS011;10082;51.038;6.992;2022-08-05T14:15:53;4.90;;;4.40;;
19842;SDS011;10082;51.038;6.992;2022-08-05T14:18:20;5.38;;;4.88;;
19842;SDS011;10082;51.038;6.992;2022-08-05T14:20:47;6.07;;;5.40;;
19842;SDS011;10082;51.038;6.992;2022-08-05T14:23:13;6.03;;;5.43;;
19842;SDS011;10082;51.038;6.992;2022-08-05T14:25:40;5.85;;;5.25;;
19842;SDS011;10082;51.038;6.992;2022-08-05T14:28:07;7.60;;;5.18;;
19842;SDS011;10082;51.038;6.992;2022-08-05T14:30:35;4.88;;;4.40;;
19842;SDS011;10082;51.038;6.992;2022-08-05T14:33:02;5.07;;;4.38;;
19842;SDS011;10082;51.038;6.992;2022-08-05T14:35:28;4.80;;;4.30;;
19842;SDS011;10082;51.038;6.992;2022-08-05T14:37:55;5.00;;;4.50;;
19842;SDS011;10082;51.038;6.992;2022-08-05T14:40:22;6.07;;;4.03;;
19842;SDS011;10082;51.038;6.992;2022-08-05T14:42:48;5.95;;;4.40;;
19842;SDS011;10082;51.038;6.992;2022-08-05T14:45:15;5.70;;;4.10;;
19842;SDS011;10082;51.038;6.992;2022-08-05T14:47:43;4.68;;;3.90;;